sensor_id;sensor_type;location;lat;lon;timestamp;pressure;altitude;pressure_sealevel;temperature;humidity
20156;BME280;10238;49.556;10.956;2024-02-21T00:02:12;99257.34;;;6.72;100.00
20156;BME280;10238;49.556;10.956;2024-02-21T00:05:01;99255.69;;;6.71;100.00
20156;BME280;10238;49.556;10.956;2024-02-21T00:07:50;99256.53;;;6.71;100.00
20156;BME280;10238;49.556;10.956;2024-02-21T00:10:38;99254.81;;;6.70;100.00
20156;BME280;10238;49.556;10.956;2024-02-21T00:13:26;99251.47;;;6.68;100.00
20156;BME280;10238;49.556;10.956;2024-02-21T00:16:13;99249.75;;;6.67;100.00
20156;BME280;10238;49.556;10.956;2024-02-21T00:19:02;99236.66;;;6.65;100.00
20156;BME280;10238;49.556;10.956;2024-02-21T00:21:50;99239.41;;;6.64;100.00
20156;BME280;10238;49.556;10.956;2024-02-21T00:24:39;99240.47;;;6.61;100.00
20156;BME280;10238;49.556;10.956;2024-02-21T00:27:26;99223.88;;;6.59;100.00
20156;BME280;10238;49.556;10.956;2024-02-21T00:30:14;99226.72;;;6.56;100.00
20156;BME280;10238;49.556;10.956;2024-02-21T00:33:03;99232.25;;;6.53;100.00
20156;BME280;10238;49.556;10.956;2024-02-21T00:35:50;99231.72;;;6.48;100.00
20156;BME280;10238;49.556;10.956;2024-02-21T00:38:38;99236.47;;;6.43;100.00
20156;BME280;10238;49.556;10.956;2024-02-21T00:41:27;99233.13;;;6.41;100.00
20156;BME280;10238;49.556;10.956;2024-02-21T00:44:14;99233.94;;;6.42;100.00
20156;BME280;10238;49.556;10.956;2024-02-21T00:47:02;99230.47;;;6.41;100.00
20156;BME280;10238;49.556;10.956;2024-02-21T00:49:49;99224.44;;;6.39;100.00
20156;BME280;10238;49.556;10.956;2024-02-21T00:52:37;99217.50;;;6.38;100.00
20156;BME280;10238;49.556;10.956;2024-02-21T00:55:24;99215.78;;;6.37;100.00
20156;BME280;10238;49.556;10.956;2024-02-21T00:58:13;99213.88;;;6.39;100.00
20156;BME280;10238;49.556;10.956;2024-02-21T01:01:01;99212.91;;;6.40;100.00
20156;BME280;10238;49.556;10.956;2024-02-21T01:03:49;99212.00;;;6.41;100.00
20156;BME280;10238;49.556;10.956;2024-02-21T01:06:37;99204.56;;;6.46;100.00
20156;BME280;10238;49.556;10.956;2024-02-21T01:09:25;99209.84;;;6.46;100.00
20156;BME280;10238;49.556;10.956;2024-02-21T01:12:12;99203.75;;;6.46;100.00
20156;BME280;10238;49.556;10.956;2024-02-21T01:15:01;99194.75;;;6.48;100.00
20156;BME280;10238;49.556;10.956;2024-02-21T01:17:49;99198.25;;;6.49;100.00
20156;BME280;10238;49.556;10.956;2024-02-21T01:20:40;99190.66;;;6.44;100.00
20156;BME280;10238;49.556;10.956;2024-02-21T01:23:28;99185.59;;;6.41;100.00
20156;BME280;10238;49.556;10.956;2024-02-21T01:26:15;99194.53;;;6.39;100.00
20156;BME280;10238;49.556;10.956;2024-02-21T01:29:03;99186.97;;;6.34;100.00
20156;BME280;10238;49.556;10.956;2024-02-21T01:31:52;99184.56;;;6.31;100.00
20156;BME280;10238;49.556;10.956;2024-02-21T01:34:39;99188.34;;;6.27;100.00
20156;BME280;10238;49.556;10.956;2024-02-21T01:37:27;99187.63;;;6.25;100.00
20156;BME280;10238;49.556;10.956;2024-02-21T01:40:16;99179.91;;;6.22;100.00
20156;BME280;10238;49.556;10.956;2024-02-21T01:43:03;99168.50;;;6.22;100.00
20156;BME280;10238;49.556;10.956;2024-02-21T01:45:54;99165.97;;;6.20;100.00
20156;BME280;10238;49.556;10.956;2024-02-21T01:48:43;99167.88;;;6.18;100.00
20156;BME280;10238;49.556;10.956;2024-02-21T01:51:33;99165.34;;;6.17;100.00
20156;BME280;10238;49.556;10.956;2024-02-21T01:54:21;99156.59;;;6.16;100.00
20156;BME280;10238;49.556;10.956;2024-02-21T01:57:09;99162.81;;;6.15;100.00
20156;BME280;10238;49.556;10.956;2024-02-21T01:59:56;99158.47;;;6.14;100.00
20156;BME280;10238;49.556;10.956;2024-02-21T02:02:45;99162.06;;;6.13;100.00
20156;BME280;10238;49.556;10.956;2024-02-21T02:05:35;99159.53;;;6.12;100.00
20156;BME280;10238;49.556;10.956;2024-02-21T02:08:23;99166.59;;;6.11;100.00
20156;BME280;10238;49.556;10.956;2024-02-21T02:11:14;99160.59;;;6.09;100.00
20156;BME280;10238;49.556;10.956;2024-02-21T02:14:02;99166.81;;;6.08;100.00
20156;BME280;10238;49.556;10.956;2024-02-21T02:16:49;99158.91;;;6.08;100.00
20156;BME280;10238;49.556;10.956;2024-02-21T02:19:37;99158.19;;;6.06;100.00
20156;BME280;10238;49.556;10.956;2024-02-21T02:22:29;99161.75;;;6.05;100.00
20156;BME280;10238;49.556;10.956;2024-02-21T02:25:21;99150.25;;;6.06;100.00
20156;BME280;10238;49.556;10.956;2024-02-21T02:28:09;99145.09;;;6.05;100.00
20156;BME280;10238;49.556;10.956;2024-02-21T02:30:57;99129.38;;;6.03;100.00
20156;BME280;10238;49.556;10.956;2024-02-21T02:33:44;99139.91;;;6.03;100.00
20156;BME280;10238;49.556;10.956;2024-02-21T02:36:33;99131.16;;;6.03;100.00
20156;BME280;10238;49.556;10.956;2024-02-21T02:39:22;99120.81;;;6.00;100.00
20156;BME280;10238;49.556;10.956;2024-02-21T02:42:11;99117.25;;;6.01;100.00
20156;BME280;10238;49.556;10.956;2024-02-21T02:44:59;99115.41;;;6.01;100.00
20156;BME280;10238;49.556;10.956;2024-02-21T02:47:47;99111.09;;;6.00;100.00
20156;BME280;10238;49.556;10.956;2024-02-21T02:50:35;99103.28;;;5.99;100.00
20156;BME280;10238;49.556;10.956;2024-02-21T02:53:22;99102.66;;;5.95;100.00
20156;BME280;10238;49.556;10.956;2024-02-21T02:56:15;99101.84;;;5.95;100.00
20156;BME280;10238;49.556;10.956;2024-02-21T02:59:04;99100.22;;;5.92;100.00
20156;BME280;10238;49.556;10.956;2024-02-21T03:01:51;99094.94;;;5.92;100.00
20156;BME280;10238;49.556;10.956;2024-02-21T03:04:40;99098.66;;;5.90;100.00
20156;BME280;10238;49.556;10.956;2024-02-21T03:07:27;99097.91;;;5.88;100.00
20156;BME280;10238;49.556;10.956;2024-02-21T03:10:15;99105.94;;;5.86;100.00
20156;BME280;10238;49.556;10.956;2024-02-21T03:13:04;99108.56;;;5.86;100.00
20156;BME280;10238;49.556;10.956;2024-02-21T03:15:53;99099.94;;;5.84;100.00
20156;BME280;10238;49.556;10.956;2024-02-21T03:18:43;99096.34;;;5.85;100.00
20156;BME280;10238;49.556;10.956;2024-02-21T03:21:31;99093.81;;;5.84;100.00
20156;BME280;10238;49.556;10.956;2024-02-21T03:24:19;99085.19;;;5.82;100.00
20156;BME280;10238;49.556;10.956;2024-02-21T03:27:07;99079.03;;;5.81;100.00
20156;BME280;10238;49.556;10.956;2024-02-21T03:29:55;99082.53;;;5.82;100.00
20156;BME280;10238;49.556;10.956;2024-02-21T03:32:44;99076.47;;;5.80;100.00
20156;BME280;10238;49.556;10.956;2024-02-21T03:35:32;99074.81;;;5.79;100.00
20156;BME280;10238;49.556;10.956;2024-02-21T03:38:20;99065.06;;;5.79;100.00
20156;BME280;10238;49.556;10.956;2024-02-21T03:41:07;99065.06;;;5.79;100.00
20156;BME280;10238;49.556;10.956;2024-02-21T03:43:55;99069.44;;;5.80;100.00
20156;BME280;10238;49.556;10.956;2024-02-21T03:46:43;99057.94;;;5.81;100.00
20156;BME280;10238;49.556;10.956;2024-02-21T03:49:33;99061.34;;;5.83;100.00
20156;BME280;10238;49.556;10.956;2024-02-21T03:52:20;99060.88;;;5.89;100.00
20156;BME280;10238;49.556;10.956;2024-02-21T03:55:09;99062.56;;;5.90;100.00
20156;BME280;10238;49.556;10.956;2024-02-21T03:57:57;99063.50;;;5.89;100.00
20156;BME280;10238;49.556;10.956;2024-02-21T04:00:44;99063.50;;;5.89;100.00
20156;BME280;10238;49.556;10.956;2024-02-21T04:03:32;99065.31;;;5.89;100.00
20156;BME280;10238;49.556;10.956;2024-02-21T04:06:21;99067.84;;;5.90;100.00
20156;BME280;10238;49.556;10.956;2024-02-21T04:09:09;99070.28;;;5.93;100.00
20156;BME280;10238;49.556;10.956;2024-02-21T04:11:56;99062.38;;;5.93;100.00
20156;BME280;10238;49.556;10.956;2024-02-21T04:14:44;99066.78;;;5.93;100.00
20156;BME280;10238;49.556;10.956;2024-02-21T04:17:34;99059.84;;;5.92;100.00
20156;BME280;10238;49.556;10.956;2024-02-21T04:20:22;99072.16;;;5.91;100.00
20156;BME280;10238;49.556;10.956;2024-02-21T04:23:11;99068.56;;;5.92;100.00
20156;BME280;10238;49.556;10.956;2024-02-21T04:25:59;99066.88;;;5.91;100.00
20156;BME280;10238;49.556;10.956;2024-02-21T04:28:46;99066.88;;;5.91;100.00
20156;BME280;10238;49.556;10.956;2024-02-21T04:31:34;99062.47;;;5.92;100.00
20156;BME280;10238;49.556;10.956;2024-02-21T04:34:23;99055.38;;;5.92;100.00
20156;BME280;10238;49.556;10.956;2024-02-21T04:37:11;99059.84;;;5.92;100.00
20156;BME280;10238;49.556;10.956;2024-02-21T04:40:00;99047.47;;;5.92;100.00
20156;BME280;10238;49.556;10.956;2024-02-21T04:42:48;99041.47;;;5.90;100.00
20156;BME280;10238;49.556;10.956;2024-02-21T04:45:36;99046.75;;;5.90;100.00
20156;BME280;10238;49.556;10.956;2024-02-21T04:48:23;99048.63;;;5.88;100.00
20156;BME280;10238;49.556;10.956;2024-02-21T04:51:12;99039.97;;;5.86;100.00
20156;BME280;10238;49.556;10.956;2024-02-21T04:54:00;99022.69;;;5.82;100.00
20156;BME280;10238;49.556;10.956;2024-02-21T04:56:49;99028.16;;;5.79;100.00
20156;BME280;10238;49.556;10.956;2024-02-21T04:59:39;99016.34;;;5.72;100.00
20156;BME280;10238;49.556;10.956;2024-02-21T05:02:26;99014.03;;;5.68;100.00
20156;BME280;10238;49.556;10.956;2024-02-21T05:05:14;99010.78;;;5.64;100.00
20156;BME280;10238;49.556;10.956;2024-02-21T05:08:04;99005.72;;;5.61;100.00
20156;BME280;10238;49.556;10.956;2024-02-21T05:10:52;99001.59;;;5.57;100.00
20156;BME280;10238;49.556;10.956;2024-02-21T05:13:41;98999.91;;;5.56;100.00
20156;BME280;10238;49.556;10.956;2024-02-21T05:16:29;99002.03;;;5.51;100.00
20156;BME280;10238;49.556;10.956;2024-02-21T05:19:17;99000.56;;;5.47;100.00
20156;BME280;10238;49.556;10.956;2024-02-21T05:22:05;98995.50;;;5.44;100.00
20156;BME280;10238;49.556;10.956;2024-02-21T05:24:53;98996.78;;;5.39;100.00
20156;BME280;10238;49.556;10.956;2024-02-21T05:27:41;98997.84;;;5.36;100.00
20156;BME280;10238;49.556;10.956;2024-02-21T05:30:30;99004.25;;;5.32;100.00
20156;BME280;10238;49.556;10.956;2024-02-21T05:33:18;99007.13;;;5.29;100.00
20156;BME280;10238;49.556;10.956;2024-02-21T05:36:08;99002.91;;;5.27;100.00
20156;BME280;10238;49.556;10.956;2024-02-21T05:38:56;98999.66;;;5.23;100.00
20156;BME280;10238;49.556;10.956;2024-02-21T05:41:47;98994.59;;;5.20;100.00
20156;BME280;10238;49.556;10.956;2024-02-21T05:44:34;98996.56;;;5.17;100.00
20156;BME280;10238;49.556;10.956;2024-02-21T05:47:25;98997.63;;;5.14;100.00
20156;BME280;10238;49.556;10.956;2024-02-21T05:50:12;98996.78;;;5.14;100.00
20156;BME280;10238;49.556;10.956;2024-02-21T05:53:00;98992.56;;;5.11;100.00
20156;BME280;10238;49.556;10.956;2024-02-21T05:55:50;98988.59;;;5.06;100.00
20156;BME280;10238;49.556;10.956;2024-02-21T05:58:38;98987.28;;;4.99;100.00
20156;BME280;10238;49.556;10.956;2024-02-21T06:01:26;98995.53;;;4.94;100.00
20156;BME280;10238;49.556;10.956;2024-02-21T06:04:15;98994.03;;;4.90;100.00
20156;BME280;10238;49.556;10.956;2024-02-21T06:07:03;98994.44;;;4.84;100.00
20156;BME280;10238;49.556;10.956;2024-02-21T06:09:51;98988.56;;;4.81;100.00
20156;BME280;10238;49.556;10.956;2024-02-21T06:12:39;98988.09;;;4.74;100.00
20156;BME280;10238;49.556;10.956;2024-02-21T06:15:27;98991.06;;;4.70;100.00
20156;BME280;10238;49.556;10.956;2024-02-21T06:18:14;98985.38;;;4.63;100.00
20156;BME280;10238;49.556;10.956;2024-02-21T06:21:06;98984.91;;;4.57;100.00
20156;BME280;10238;49.556;10.956;2024-02-21T06:23:54;98991.44;;;4.51;100.00
20156;BME280;10238;49.556;10.956;2024-02-21T06:26:42;98995.44;;;4.44;100.00
20156;BME280;10238;49.556;10.956;2024-02-21T06:29:31;98995.84;;;4.38;100.00
20156;BME280;10238;49.556;10.956;2024-02-21T06:32:18;98996.97;;;4.34;100.00
20156;BME280;10238;49.556;10.956;2024-02-21T06:35:06;98996.44;;;4.29;100.00
20156;BME280;10238;49.556;10.956;2024-02-21T06:37:55;99000.22;;;4.25;100.00
20156;BME280;10238;49.556;10.956;2024-02-21T06:40:43;99001.47;;;4.19;100.00
20156;BME280;10238;49.556;10.956;2024-02-21T06:43:38;99001.84;;;4.13;100.00
20156;BME280;10238;49.556;10.956;2024-02-21T06:46:27;99002.06;;;4.10;100.00
20156;BME280;10238;49.556;10.956;2024-02-21T06:49:16;98995.09;;;4.09;100.00
20156;BME280;10238;49.556;10.956;2024-02-21T06:52:05;98988.03;;;4.10;100.00
20156;BME280;10238;49.556;10.956;2024-02-21T06:54:54;98985.13;;;4.14;100.00
20156;BME280;10238;49.556;10.956;2024-02-21T06:57:42;98984.81;;;4.19;100.00
20156;BME280;10238;49.556;10.956;2024-02-21T07:00:30;98978.75;;;4.31;100.00
20156;BME280;10238;49.556;10.956;2024-02-21T07:03:18;98978.28;;;4.51;100.00
20156;BME280;10238;49.556;10.956;2024-02-21T07:06:06;98985.47;;;4.74;100.00
20156;BME280;10238;49.556;10.956;2024-02-21T07:08:54;98985.09;;;4.93;100.00
20156;BME280;10238;49.556;10.956;2024-02-21T07:11:43;98994.16;;;5.01;100.00
20156;BME280;10238;49.556;10.956;2024-02-21T07:14:32;98989.28;;;5.08;100.00
20156;BME280;10238;49.556;10.956;2024-02-21T07:17:20;98991.19;;;5.18;100.00
20156;BME280;10238;49.556;10.956;2024-02-21T07:20:09;98991.84;;;5.22;100.00
20156;BME280;10238;49.556;10.956;2024-02-21T07:22:57;98988.16;;;5.24;100.00
20156;BME280;10238;49.556;10.956;2024-02-21T07:25:44;98988.34;;;5.21;100.00
20156;BME280;10238;49.556;10.956;2024-02-21T07:28:34;98986.06;;;5.29;100.00
20156;BME280;10238;49.556;10.956;2024-02-21T07:31:22;98979.41;;;5.36;100.00
20156;BME280;10238;49.556;10.956;2024-02-21T07:34:10;98973.47;;;5.45;100.00
20156;BME280;10238;49.556;10.956;2024-02-21T07:36:58;98980.94;;;5.51;100.00
20156;BME280;10238;49.556;10.956;2024-02-21T07:39:45;98979.16;;;5.64;100.00
20156;BME280;10238;49.556;10.956;2024-02-21T07:42:33;98973.72;;;5.78;100.00
20156;BME280;10238;49.556;10.956;2024-02-21T07:45:23;98972.88;;;5.90;100.00
20156;BME280;10238;49.556;10.956;2024-02-21T07:48:10;98975.06;;;5.96;100.00
20156;BME280;10238;49.556;10.956;2024-02-21T07:50:58;98956.13;;;6.02;100.00
20156;BME280;10238;49.556;10.956;2024-02-21T07:53:46;98964.84;;;6.15;100.00
20156;BME280;10238;49.556;10.956;2024-02-21T07:56:34;98971.47;;;6.21;100.00
20156;BME280;10238;49.556;10.956;2024-02-21T07:59:22;98969.31;;;6.26;100.00
20156;BME280;10238;49.556;10.956;2024-02-21T08:02:15;98976.09;;;6.30;100.00
20156;BME280;10238;49.556;10.956;2024-02-21T08:05:04;98955.56;;;6.33;100.00
20156;BME280;10238;49.556;10.956;2024-02-21T08:07:53;98948.16;;;6.38;100.00
20156;BME280;10238;49.556;10.956;2024-02-21T08:10:44;98950.22;;;6.46;100.00
20156;BME280;10238;49.556;10.956;2024-02-21T08:13:31;98936.19;;;6.56;100.00
20156;BME280;10238;49.556;10.956;2024-02-21T08:16:19;98925.91;;;6.64;100.00
20156;BME280;10238;49.556;10.956;2024-02-21T08:19:10;98920.16;;;6.71;100.00
20156;BME280;10238;49.556;10.956;2024-02-21T08:21:58;98918.72;;;6.78;100.00
20156;BME280;10238;49.556;10.956;2024-02-21T08:24:47;98919.59;;;6.89;100.00
20156;BME280;10238;49.556;10.956;2024-02-21T08:27:34;98927.66;;;6.99;100.00
20156;BME280;10238;49.556;10.956;2024-02-21T08:30:22;98923.22;;;7.10;100.00
20156;BME280;10238;49.556;10.956;2024-02-21T08:33:10;98927.69;;;7.21;100.00
20156;BME280;10238;49.556;10.956;2024-02-21T08:35:59;98925.03;;;7.32;100.00
20156;BME280;10238;49.556;10.956;2024-02-21T08:38:46;98916.25;;;7.42;100.00
20156;BME280;10238;49.556;10.956;2024-02-21T08:41:35;98912.16;;;7.49;100.00
20156;BME280;10238;49.556;10.956;2024-02-21T08:44:41;98898.66;;;7.63;100.00
20156;BME280;10238;49.556;10.956;2024-02-21T08:47:30;98902.97;;;7.75;100.00
20156;BME280;10238;49.556;10.956;2024-02-21T08:50:17;98898.22;;;7.90;100.00
20156;BME280;10238;49.556;10.956;2024-02-21T08:53:16;98888.44;;;8.01;100.00
20156;BME280;10238;49.556;10.956;2024-02-21T08:56:05;98887.00;;;8.08;100.00
20156;BME280;10238;49.556;10.956;2024-02-21T08:58:53;98888.72;;;8.19;100.00
20156;BME280;10238;49.556;10.956;2024-02-21T09:01:42;98880.31;;;8.25;100.00
20156;BME280;10238;49.556;10.956;2024-02-21T09:04:30;98877.63;;;8.36;100.00
20156;BME280;10238;49.556;10.956;2024-02-21T09:07:19;98875.16;;;8.44;100.00
20156;BME280;10238;49.556;10.956;2024-02-21T09:10:09;98877.78;;;8.55;100.00
20156;BME280;10238;49.556;10.956;2024-02-21T09:12:57;98868.63;;;8.68;100.00
20156;BME280;10238;49.556;10.956;2024-02-21T09:15:45;98860.03;;;8.76;100.00
20156;BME280;10238;49.556;10.956;2024-02-21T09:18:32;98859.25;;;8.85;100.00
20156;BME280;10238;49.556;10.956;2024-02-21T09:21:20;98860.41;;;8.92;100.00
20156;BME280;10238;49.556;10.956;2024-02-21T09:24:08;98859.88;;;8.98;100.00
20156;BME280;10238;49.556;10.956;2024-02-21T09:26:56;98860.31;;;9.03;100.00
20156;BME280;10238;49.556;10.956;2024-02-21T09:29:44;98855.72;;;9.05;100.00
20156;BME280;10238;49.556;10.956;2024-02-21T09:32:32;98850.13;;;9.08;100.00
20156;BME280;10238;49.556;10.956;2024-02-21T09:35:20;98846.69;;;9.17;100.00
20156;BME280;10238;49.556;10.956;2024-02-21T09:38:10;98846.88;;;9.25;100.00
20156;BME280;10238;49.556;10.956;2024-02-21T09:41:01;98845.81;;;9.37;100.00
20156;BME280;10238;49.556;10.956;2024-02-21T09:43:53;98841.34;;;9.47;100.00
20156;BME280;10238;49.556;10.956;2024-02-21T09:46:52;98830.63;;;9.49;100.00
20156;BME280;10238;49.556;10.956;2024-02-21T09:49:44;98825.16;;;9.50;100.00
20156;BME280;10238;49.556;10.956;2024-02-21T09:52:35;98822.94;;;9.55;100.00
20156;BME280;10238;49.556;10.956;2024-02-21T09:55:25;98820.97;;;9.57;100.00
20156;BME280;10238;49.556;10.956;2024-02-21T09:58:14;98819.19;;;9.67;100.00
20156;BME280;10238;49.556;10.956;2024-02-21T10:01:03;98810.13;;;9.79;100.00
20156;BME280;10238;49.556;10.956;2024-02-21T10:04:11;98787.75;;;9.91;100.00
20156;BME280;10238;49.556;10.956;2024-02-21T10:06:59;98788.59;;;9.92;100.00
20156;BME280;10238;49.556;10.956;2024-02-21T10:09:46;98787.91;;;9.99;100.00
20156;BME280;10238;49.556;10.956;2024-02-21T10:12:35;98776.59;;;10.07;100.00
20156;BME280;10238;49.556;10.956;2024-02-21T10:15:24;98768.31;;;10.19;100.00
20156;BME280;10238;49.556;10.956;2024-02-21T10:18:18;98766.47;;;10.29;100.00
20156;BME280;10238;49.556;10.956;2024-02-21T10:21:07;98748.88;;;10.38;100.00
20156;BME280;10238;49.556;10.956;2024-02-21T10:23:55;98752.72;;;10.53;100.00
20156;BME280;10238;49.556;10.956;2024-02-21T10:26:42;98758.84;;;10.63;100.00
20156;BME280;10238;49.556;10.956;2024-02-21T10:29:30;98754.78;;;10.68;100.00
20156;BME280;10238;49.556;10.956;2024-02-21T10:32:18;98747.19;;;10.73;100.00
20156;BME280;10238;49.556;10.956;2024-02-21T10:35:07;98746.47;;;10.81;100.00
20156;BME280;10238;49.556;10.956;2024-02-21T10:37:57;98737.34;;;10.83;100.00
20156;BME280;10238;49.556;10.956;2024-02-21T10:40:47;98734.94;;;10.90;100.00
20156;BME280;10238;49.556;10.956;2024-02-21T10:43:39;98733.22;;;10.98;100.00
20156;BME280;10238;49.556;10.956;2024-02-21T10:46:29;98723.91;;;11.12;100.00
20156;BME280;10238;49.556;10.956;2024-02-21T10:49:24;98725.47;;;11.32;100.00
20156;BME280;10238;49.556;10.956;2024-02-21T10:52:26;98718.09;;;11.44;100.00
20156;BME280;10238;49.556;10.956;2024-02-21T10:55:26;98713.31;;;11.47;100.00
20156;BME280;10238;49.556;10.956;2024-02-21T10:58:17;98703.19;;;11.51;100.00
20156;BME280;10238;49.556;10.956;2024-02-21T11:01:07;98698.94;;;11.58;100.00
20156;BME280;10238;49.556;10.956;2024-02-21T11:03:58;98695.56;;;11.65;100.00
20156;BME280;10238;49.556;10.956;2024-02-21T11:06:47;98698.50;;;11.80;100.00
20156;BME280;10238;49.556;10.956;2024-02-21T11:09:39;98686.41;;;11.85;100.00
20156;BME280;10238;49.556;10.956;2024-02-21T11:12:27;98678.88;;;11.81;100.00
20156;BME280;10238;49.556;10.956;2024-02-21T11:15:15;98675.81;;;11.76;100.00
20156;BME280;10238;49.556;10.956;2024-02-21T11:18:03;98657.72;;;11.79;100.00
20156;BME280;10238;49.556;10.956;2024-02-21T11:20:51;98652.03;;;12.00;100.00
20156;BME280;10238;49.556;10.956;2024-02-21T11:23:39;98645.78;;;12.09;100.00
20156;BME280;10238;49.556;10.956;2024-02-21T11:26:29;98638.03;;;12.23;100.00
20156;BME280;10238;49.556;10.956;2024-02-21T11:29:23;98634.34;;;12.24;100.00
20156;BME280;10238;49.556;10.956;2024-02-21T11:32:14;98638.94;;;12.40;100.00
20156;BME280;10238;49.556;10.956;2024-02-21T11:35:04;98630.66;;;12.51;100.00
20156;BME280;10238;49.556;10.956;2024-02-21T11:37:54;98610.19;;;12.51;100.00
20156;BME280;10238;49.556;10.956;2024-02-21T11:40:45;98611.09;;;12.76;100.00
20156;BME280;10238;49.556;10.956;2024-02-21T11:43:35;98611.38;;;13.07;100.00
20156;BME280;10238;49.556;10.956;2024-02-21T11:46:23;98601.53;;;13.15;100.00
20156;BME280;10238;49.556;10.956;2024-02-21T11:49:10;98576.78;;;12.89;100.00
20156;BME280;10238;49.556;10.956;2024-02-21T11:51:59;98581.78;;;12.92;100.00
20156;BME280;10238;49.556;10.956;2024-02-21T11:54:50;98575.78;;;12.90;100.00
20156;BME280;10238;49.556;10.956;2024-02-21T11:57:38;98568.41;;;12.84;100.00
20156;BME280;10238;49.556;10.956;2024-02-21T12:00:31;98577.84;;;13.12;100.00
20156;BME280;10238;49.556;10.956;2024-02-21T12:03:19;98558.31;;;13.03;100.00
20156;BME280;10238;49.556;10.956;2024-02-21T12:06:07;98546.09;;;12.93;100.00
20156;BME280;10238;49.556;10.956;2024-02-21T12:08:58;98542.81;;;13.07;100.00
20156;BME280;10238;49.556;10.956;2024-02-21T12:11:48;98531.78;;;13.10;100.00
20156;BME280;10238;49.556;10.956;2024-02-21T12:14:44;98539.16;;;13.24;100.00
20156;BME280;10238;49.556;10.956;2024-02-21T12:17:34;98521.47;;;13.31;100.00
20156;BME280;10238;49.556;10.956;2024-02-21T12:20:22;98528.13;;;13.43;100.00
20156;BME280;10238;49.556;10.956;2024-02-21T12:23:10;98518.09;;;13.53;100.00
20156;BME280;10238;49.556;10.956;2024-02-21T12:25:59;98511.44;;;13.49;100.00
20156;BME280;10238;49.556;10.956;2024-02-21T12:28:47;98498.78;;;13.27;100.00
20156;BME280;10238;49.556;10.956;2024-02-21T12:31:35;98499.78;;;13.42;100.00
20156;BME280;10238;49.556;10.956;2024-02-21T12:34:25;98496.06;;;13.51;100.00
20156;BME280;10238;49.556;10.956;2024-02-21T12:37:29;98489.69;;;13.68;100.00
20156;BME280;10238;49.556;10.956;2024-02-21T12:40:16;98488.69;;;13.77;100.00
20156;BME280;10238;49.556;10.956;2024-02-21T12:43:04;98477.94;;;13.93;100.00
20156;BME280;10238;49.556;10.956;2024-02-21T12:45:52;98484.88;;;14.10;100.00
20156;BME280;10238;49.556;10.956;2024-02-21T12:48:40;98455.22;;;13.89;100.00
20156;BME280;10238;49.556;10.956;2024-02-21T12:51:29;98452.25;;;13.84;100.00
20156;BME280;10238;49.556;10.956;2024-02-21T12:54:16;98449.53;;;13.92;100.00
20156;BME280;10238;49.556;10.956;2024-02-21T12:57:06;98445.63;;;14.03;100.00
20156;BME280;10238;49.556;10.956;2024-02-21T12:59:54;98440.53;;;13.93;100.00
20156;BME280;10238;49.556;10.956;2024-02-21T13:02:41;98436.78;;;14.02;100.00
20156;BME280;10238;49.556;10.956;2024-02-21T13:05:29;98423.31;;;14.18;100.00
20156;BME280;10238;49.556;10.956;2024-02-21T13:08:20;98421.97;;;14.30;100.00
20156;BME280;10238;49.556;10.956;2024-02-21T13:11:09;98420.78;;;14.55;100.00
20156;BME280;10238;49.556;10.956;2024-02-21T13:13:57;98400.22;;;14.33;100.00
20156;BME280;10238;49.556;10.956;2024-02-21T13:16:45;98395.75;;;14.26;100.00
20156;BME280;10238;49.556;10.956;2024-02-21T13:19:33;98396.97;;;14.15;100.00
20156;BME280;10238;49.556;10.956;2024-02-21T13:22:21;98401.41;;;14.31;100.00
20156;BME280;10238;49.556;10.956;2024-02-21T13:25:13;98387.41;;;14.21;100.00
20156;BME280;10238;49.556;10.956;2024-02-21T13:28:05;98383.41;;;14.17;100.00
20156;BME280;10238;49.556;10.956;2024-02-21T13:30:53;98373.66;;;14.01;100.00
20156;BME280;10238;49.556;10.956;2024-02-21T13:33:42;98369.34;;;13.92;100.00
20156;BME280;10238;49.556;10.956;2024-02-21T13:36:31;98361.31;;;14.00;100.00
20156;BME280;10238;49.556;10.956;2024-02-21T13:39:18;98352.53;;;13.84;100.00
20156;BME280;10238;49.556;10.956;2024-02-21T13:42:07;98353.00;;;13.57;100.00
20156;BME280;10238;49.556;10.956;2024-02-21T13:44:56;98342.97;;;13.59;100.00
20156;BME280;10238;49.556;10.956;2024-02-21T13:47:43;98333.50;;;13.48;97.90
20156;BME280;10238;49.556;10.956;2024-02-21T13:50:31;98333.84;;;13.45;100.00
20156;BME280;10238;49.556;10.956;2024-02-21T13:53:21;98327.97;;;13.50;98.22
20156;BME280;10238;49.556;10.956;2024-02-21T13:56:09;98329.84;;;13.49;100.00
20156;BME280;10238;49.556;10.956;2024-02-21T13:59:00;98332.72;;;13.70;100.00
20156;BME280;10238;49.556;10.956;2024-02-21T14:01:47;98329.31;;;13.84;100.00
20156;BME280;10238;49.556;10.956;2024-02-21T14:04:36;98315.03;;;13.69;100.00
20156;BME280;10238;49.556;10.956;2024-02-21T14:07:23;98317.03;;;13.67;100.00
20156;BME280;10238;49.556;10.956;2024-02-21T14:10:11;98308.75;;;13.62;100.00
20156;BME280;10238;49.556;10.956;2024-02-21T14:12:59;98315.09;;;13.61;100.00
20156;BME280;10238;49.556;10.956;2024-02-21T14:15:48;98299.19;;;13.37;94.69
20156;BME280;10238;49.556;10.956;2024-02-21T14:18:37;98300.09;;;13.22;89.67
20156;BME280;10238;49.556;10.956;2024-02-21T14:21:25;98318.25;;;13.26;100.00
20156;BME280;10238;49.556;10.956;2024-02-21T14:24:12;98319.34;;;13.40;100.00
20156;BME280;10238;49.556;10.956;2024-02-21T14:27:00;98292.53;;;13.33;100.00
20156;BME280;10238;49.556;10.956;2024-02-21T14:29:49;98297.59;;;13.20;100.00
20156;BME280;10238;49.556;10.956;2024-02-21T14:32:44;98292.09;;;13.14;100.00
20156;BME280;10238;49.556;10.956;2024-02-21T14:35:32;98287.31;;;13.01;98.92
20156;BME280;10238;49.556;10.956;2024-02-21T14:38:23;98289.16;;;12.84;100.00
20156;BME280;10238;49.556;10.956;2024-02-21T14:41:11;98287.44;;;12.91;100.00